createdAt,value
2023-08-24T00:00:29.355Z,19.17
2023-08-24T00:02:55.920Z,19.22
2023-08-24T00:05:26.074Z,19.28
2023-08-24T00:07:54.104Z,19.29
2023-08-24T00:10:20.734Z,19.33
2023-08-24T00:12:47.243Z,19.34
2023-08-24T00:15:20.246Z,19.41
2023-08-24T00:17:47.241Z,19.43
2023-08-24T00:20:14.702Z,19.35
2023-08-24T00:22:41.536Z,19.27
2023-08-24T00:25:09.638Z,19.29
2023-08-24T00:27:36.835Z,19.26
2023-08-24T00:30:05.545Z,19.28
2023-08-24T00:32:35.415Z,19.28
2023-08-24T00:35:11.213Z,19.18
2023-08-24T00:37:38.792Z,19.10
2023-08-24T00:40:10.909Z,19.08
2023-08-24T00:42:45.445Z,19.15
2023-08-24T00:45:16.262Z,19.17
2023-08-24T00:47:48.061Z,19.17
2023-08-24T00:50:17.444Z,19.18
2023-08-24T00:52:44.404Z,19.19
2023-08-24T00:55:11.381Z,19.16
2023-08-24T00:57:40.798Z,19.11
2023-08-24T01:00:11.312Z,19.11
2023-08-24T01:02:39.231Z,19.14
2023-08-24T01:05:06.091Z,19.15
2023-08-24T01:07:34.625Z,19.11
2023-08-24T01:10:01.162Z,19.09
2023-08-24T01:12:55.223Z,19.15
2023-08-24T01:15:45.364Z,19.16
2023-08-24T01:18:20.105Z,19.15
2023-08-24T01:20:48.182Z,19.12
2023-08-24T01:23:45.663Z,19.06
2023-08-24T01:26:13.432Z,19.06
2023-08-24T01:28:40.980Z,19.07
2023-08-24T01:31:08.859Z,19.05
2023-08-24T01:33:35.505Z,19.04
2023-08-24T01:36:02.157Z,19.07
2023-08-24T01:38:31.720Z,19.08
2023-08-24T01:41:24.272Z,19.02
2023-08-24T01:43:54.713Z,18.98
2023-08-24T01:46:23.453Z,19.03
2023-08-24T01:48:51.858Z,19.05
2023-08-24T01:51:18.501Z,19.06
2023-08-24T01:53:46.541Z,19.04
2023-08-24T01:56:16.613Z,19.05
2023-08-24T01:58:43.378Z,18.98
2023-08-24T02:01:17.328Z,18.97
2023-08-24T02:03:44.050Z,18.95
2023-08-24T02:06:10.670Z,18.94
2023-08-24T02:08:39.796Z,18.89
2023-08-24T02:11:10.050Z,18.88
2023-08-24T02:13:36.685Z,18.90
2023-08-24T02:16:09.717Z,18.84
2023-08-24T02:18:36.790Z,18.84
2023-08-24T02:21:09.337Z,18.75
2023-08-24T02:23:35.931Z,18.77
2023-08-24T02:26:02.422Z,18.79
2023-08-24T02:28:28.985Z,18.80
2023-08-24T02:30:55.714Z,18.85
2023-08-24T02:33:22.215Z,18.85
2023-08-24T02:35:49.068Z,18.83
2023-08-24T02:38:18.932Z,18.81
2023-08-24T02:40:48.960Z,18.88
2023-08-24T02:43:15.507Z,18.87
2023-08-24T02:45:42.159Z,18.94
2023-08-24T02:48:08.737Z,18.99
2023-08-24T02:50:38.180Z,18.99
2023-08-24T02:53:04.682Z,18.99
2023-08-24T02:55:33.692Z,18.99
2023-08-24T02:58:00.213Z,18.98
2023-08-24T03:00:31.021Z,18.95
2023-08-24T03:02:57.594Z,18.95
2023-08-24T03:05:25.077Z,18.94
2023-08-24T03:07:51.984Z,18.86
2023-08-24T03:10:18.673Z,18.84
2023-08-24T03:12:45.281Z,18.84
2023-08-24T03:15:11.850Z,18.81
2023-08-24T03:17:38.449Z,18.79
2023-08-24T03:20:05.751Z,18.79
2023-08-24T03:22:32.273Z,18.77
2023-08-24T03:24:58.968Z,18.80
2023-08-24T03:27:25.463Z,18.79
2023-08-24T03:29:54.516Z,18.79
2023-08-24T03:32:23.109Z,18.78
2023-08-24T03:34:49.773Z,18.81
2023-08-24T03:37:16.254Z,18.81
2023-08-24T03:39:42.813Z,18.79
2023-08-24T03:42:09.347Z,18.79
2023-08-24T03:44:35.932Z,18.79
2023-08-24T03:47:05.205Z,18.74
2023-08-24T03:49:31.822Z,18.71
2023-08-24T03:51:58.320Z,18.65
2023-08-24T03:54:27.930Z,18.72
2023-08-24T03:56:55.003Z,18.55
2023-08-24T03:59:21.483Z,18.46
2023-08-24T04:01:48.023Z,18.35
2023-08-24T04:04:14.672Z,18.33
2023-08-24T04:06:41.393Z,18.23
2023-08-24T04:09:07.917Z,18.15
2023-08-24T04:11:34.587Z,18.13
2023-08-24T04:14:01.157Z,18.20
2023-08-24T04:16:27.702Z,18.16
2023-08-24T04:18:57.570Z,17.78
2023-08-24T04:21:24.074Z,17.66
2023-08-24T04:23:50.570Z,17.69
2023-08-24T04:26:19.939Z,17.73
2023-08-24T04:28:46.550Z,17.89
2023-08-24T04:31:13.177Z,18.00
2023-08-24T04:33:39.672Z,18.00
2023-08-24T04:36:06.279Z,17.99
2023-08-24T04:38:32.772Z,17.85
2023-08-24T04:41:08.410Z,17.85
2023-08-24T04:43:35.114Z,17.77
2023-08-24T04:46:01.682Z,17.70
2023-08-24T04:48:36.510Z,17.58
2023-08-24T04:51:07.113Z,17.63
2023-08-24T04:53:33.643Z,17.73
2023-08-24T04:56:00.185Z,17.68
2023-08-24T04:58:27.536Z,17.66
2023-08-24T05:00:57.492Z,17.88
2023-08-24T05:03:24.123Z,18.03
2023-08-24T05:05:53.954Z,17.94
2023-08-24T05:08:21.728Z,18.04
2023-08-24T05:10:48.226Z,18.04
2023-08-24T05:13:18.768Z,18.04
2023-08-24T05:15:45.271Z,18.24
2023-08-24T05:18:14.829Z,18.38
2023-08-24T05:20:41.349Z,18.50
2023-08-24T05:23:07.881Z,18.55
2023-08-24T05:25:37.203Z,18.71
2023-08-24T05:28:07.497Z,18.79
2023-08-24T05:30:34.043Z,18.92
2023-08-24T05:33:00.739Z,19.03
2023-08-24T05:35:30.693Z,19.10
2023-08-24T05:37:57.321Z,19.11
2023-08-24T05:40:23.960Z,19.11
2023-08-24T05:42:50.529Z,19.14
2023-08-24T05:45:17.034Z,19.23
2023-08-24T05:47:46.773Z,19.23
2023-08-24T05:50:13.335Z,19.24
2023-08-24T05:52:39.921Z,19.36
2023-08-24T05:55:06.802Z,19.35
2023-08-24T05:57:33.335Z,19.37
2023-08-24T05:59:59.830Z,19.39
2023-08-24T06:02:26.411Z,19.51
2023-08-24T06:04:54.641Z,19.55
2023-08-24T06:07:22.817Z,19.72
2023-08-24T06:09:49.322Z,19.86
2023-08-24T06:12:15.960Z,20.07
2023-08-24T06:14:42.460Z,20.21
2023-08-24T06:17:11.845Z,20.29
2023-08-24T06:19:39.319Z,20.20
2023-08-24T06:22:06.627Z,20.12
2023-08-24T06:24:33.138Z,20.08
2023-08-24T06:26:59.725Z,20.05
2023-08-24T06:29:26.296Z,20.10
2023-08-24T06:31:52.953Z,20.19
2023-08-24T06:34:19.501Z,20.14
2023-08-24T06:36:49.586Z,20.12
2023-08-24T06:39:16.151Z,20.09
2023-08-24T06:41:42.695Z,20.00
2023-08-24T06:44:09.236Z,19.98
2023-08-24T06:46:35.827Z,19.98
2023-08-24T06:49:02.784Z,20.04
2023-08-24T06:51:30.309Z,20.05
2023-08-24T06:53:56.864Z,20.07
2023-08-24T06:56:23.804Z,20.14
2023-08-24T06:58:50.339Z,20.10
2023-08-24T07:01:19.760Z,20.03
2023-08-24T07:03:46.357Z,20.02
2023-08-24T07:06:15.768Z,19.99
2023-08-24T07:08:42.470Z,19.96
2023-08-24T07:11:09.096Z,19.90
2023-08-24T07:13:35.972Z,19.92
2023-08-24T07:16:04.210Z,19.99
2023-08-24T07:18:30.967Z,20.01
2023-08-24T07:20:57.486Z,19.96
2023-08-24T07:23:24.065Z,19.99
2023-08-24T07:25:50.587Z,20.06
2023-08-24T07:28:17.140Z,20.16
2023-08-24T07:30:43.666Z,20.22
2023-08-24T07:33:13.190Z,20.28
2023-08-24T07:35:40.398Z,20.38
2023-08-24T07:38:06.918Z,20.49
2023-08-24T07:40:33.451Z,20.55
2023-08-24T07:43:00.406Z,20.61
2023-08-24T07:45:27.327Z,20.70
2023-08-24T07:47:55.777Z,20.78
2023-08-24T07:50:23.899Z,20.82
2023-08-24T07:52:50.590Z,20.85
2023-08-24T07:55:17.440Z,20.80
2023-08-24T07:57:45.985Z,20.73
2023-08-24T08:00:15.733Z,20.69
2023-08-24T08:02:42.724Z,20.62
2023-08-24T08:05:11.511Z,20.55
2023-08-24T08:07:38.430Z,20.51
2023-08-24T08:10:05.774Z,20.40
2023-08-24T08:12:33.327Z,20.37
2023-08-24T08:15:00.198Z,20.42
2023-08-24T08:17:28.842Z,20.56
2023-08-24T08:19:56.669Z,20.67
2023-08-24T08:22:23.239Z,20.76
2023-08-24T08:24:51.036Z,20.82
2023-08-24T08:27:26.773Z,20.80
2023-08-24T08:29:53.277Z,20.85
2023-08-24T08:32:19.797Z,20.99
2023-08-24T08:34:46.364Z,21.10
2023-08-24T08:37:12.978Z,21.20
2023-08-24T08:39:39.666Z,21.31
2023-08-24T08:42:12.517Z,21.44
2023-08-24T08:44:39.124Z,21.42
2023-08-24T08:47:08.015Z,21.52
2023-08-24T08:49:36.646Z,21.80
2023-08-24T08:52:04.815Z,22.06
2023-08-24T08:54:31.426Z,22.18
2023-08-24T08:56:57.998Z,22.14
2023-08-24T08:59:27.302Z,22.09
2023-08-24T09:01:53.915Z,22.12
2023-08-24T09:04:20.557Z,22.18
2023-08-24T09:06:47.559Z,22.21
2023-08-24T09:09:15.840Z,22.18
2023-08-24T09:11:43.343Z,22.21
2023-08-24T09:14:16.756Z,22.25
2023-08-24T09:16:43.717Z,22.27
2023-08-24T09:19:13.130Z,22.25
2023-08-24T09:21:43.058Z,22.29
2023-08-24T09:24:10.166Z,22.33
2023-08-24T09:26:38.330Z,22.34
2023-08-24T09:29:16.267Z,22.34
2023-08-24T09:31:46.780Z,22.36
2023-08-24T09:34:14.910Z,22.40
2023-08-24T09:36:41.679Z,22.41
2023-08-24T09:39:08.264Z,22.31
2023-08-24T09:41:43.135Z,22.23
2023-08-24T09:44:10.195Z,22.25
2023-08-24T09:46:39.325Z,22.22
2023-08-24T09:49:07.121Z,22.24
2023-08-24T09:51:38.168Z,22.29
2023-08-24T09:54:10.077Z,22.36
2023-08-24T09:56:42.213Z,22.37
2023-08-24T09:59:14.298Z,22.37
2023-08-24T10:01:45.892Z,22.39
2023-08-24T10:04:13.210Z,22.52
2023-08-24T10:06:43.647Z,22.60
2023-08-24T10:09:15.986Z,22.64
2023-08-24T10:11:50.598Z,22.73
2023-08-24T10:14:22.217Z,22.82
2023-08-24T10:16:49.699Z,22.79
2023-08-24T10:19:16.600Z,22.75
2023-08-24T10:21:44.057Z,22.83
2023-08-24T10:24:12.429Z,23.01
2023-08-24T10:26:40.998Z,22.99
2023-08-24T10:29:08.470Z,22.94
2023-08-24T10:31:41.710Z,22.99
2023-08-24T10:34:08.918Z,23.26
2023-08-24T10:36:35.890Z,23.82
2023-08-24T10:39:12.238Z,24.25
2023-08-24T10:41:49.673Z,24.59
2023-08-24T10:44:36.771Z,24.53
2023-08-24T10:47:13.454Z,24.56
2023-08-24T10:49:40.363Z,24.64
2023-08-24T10:52:20.821Z,24.75
2023-08-24T10:54:49.962Z,24.69
2023-08-24T10:57:25.368Z,24.83
2023-08-24T11:00:10.215Z,24.89
2023-08-24T11:02:47.990Z,24.82
2023-08-24T11:05:22.476Z,24.74
2023-08-24T11:07:51.226Z,24.67
2023-08-24T11:10:18.647Z,24.62
2023-08-24T11:13:13.030Z,24.61
2023-08-24T11:15:43.924Z,25.00
2023-08-24T11:18:19.585Z,25.29
2023-08-24T11:20:48.067Z,25.40
2023-08-24T11:23:16.726Z,25.49
2023-08-24T11:25:43.456Z,25.57
2023-08-24T11:28:10.025Z,25.58
2023-08-24T11:30:43.829Z,25.46
2023-08-24T11:33:10.433Z,25.27
2023-08-24T11:35:38.430Z,25.08
2023-08-24T11:38:05.728Z,25.13
2023-08-24T11:40:32.501Z,25.22
2023-08-24T11:42:59.930Z,25.44
2023-08-24T11:45:33.920Z,25.62
2023-08-24T11:48:02.191Z,25.77
2023-08-24T11:50:29.558Z,25.96
2023-08-24T11:52:56.214Z,26.05
2023-08-24T11:55:24.067Z,25.89
2023-08-24T11:57:52.118Z,25.88
2023-08-24T12:00:24.530Z,25.75
2023-08-24T12:02:51.524Z,25.71
2023-08-24T12:05:25.248Z,25.75
2023-08-24T12:07:55.668Z,26.07
2023-08-24T12:10:23.117Z,26.26
2023-08-24T12:12:50.302Z,26.49
2023-08-24T12:15:24.661Z,26.37
2023-08-24T12:17:51.232Z,26.21
2023-08-24T12:20:22.931Z,26.13
2023-08-24T12:22:56.870Z,26.29
2023-08-24T12:25:24.650Z,26.31
2023-08-24T12:28:17.607Z,26.31
2023-08-24T12:30:54.430Z,26.43
2023-08-24T12:33:25.758Z,26.25
2023-08-24T12:36:01.852Z,26.18
2023-08-24T12:38:28.683Z,26.21
2023-08-24T12:40:55.898Z,26.32
2023-08-24T12:43:22.511Z,26.47
2023-08-24T12:45:51.965Z,26.54
2023-08-24T12:48:18.528Z,26.61
2023-08-24T12:50:45.164Z,26.54
2023-08-24T12:53:12.283Z,26.24
2023-08-24T12:55:41.150Z,26.18
2023-08-24T12:58:07.779Z,26.17
2023-08-24T13:00:34.369Z,25.98
2023-08-24T13:03:01.160Z,25.92
2023-08-24T13:05:27.707Z,25.99
2023-08-24T13:07:54.426Z,25.86
2023-08-24T13:10:21.089Z,25.77
2023-08-24T13:12:47.639Z,25.71
2023-08-24T13:15:16.900Z,25.91
2023-08-24T13:17:43.422Z,26.07
2023-08-24T13:20:10.136Z,26.06
2023-08-24T13:22:39.309Z,25.94
2023-08-24T13:25:06.283Z,26.00
2023-08-24T13:27:32.805Z,26.03
2023-08-24T13:30:02.360Z,26.10
2023-08-24T13:32:29.188Z,26.07
2023-08-24T13:34:57.107Z,26.06
2023-08-24T13:37:24.816Z,25.99
2023-08-24T13:39:52.307Z,25.83
2023-08-24T13:42:19.359Z,25.76
2023-08-24T13:44:47.964Z,25.69
2023-08-24T13:47:14.529Z,25.66
2023-08-24T13:49:41.515Z,25.59
2023-08-24T13:52:08.879Z,25.60
2023-08-24T13:54:35.839Z,25.63
2023-08-24T13:57:02.968Z,25.62
2023-08-24T13:59:29.949Z,25.50
2023-08-24T14:01:56.708Z,25.44
2023-08-24T14:04:23.427Z,25.47
2023-08-24T14:06:50.048Z,25.40
2023-08-24T14:09:19.600Z,25.27
2023-08-24T14:11:48.898Z,25.15
2023-08-24T14:14:15.871Z,25.07
2023-08-24T14:16:42.728Z,25.08
2023-08-24T14:19:09.587Z,25.07
2023-08-24T14:21:44.998Z,25.04
2023-08-24T14:24:15.026Z,25.08
2023-08-24T14:26:46.548Z,25.22
2023-08-24T14:29:14.730Z,25.31
2023-08-24T14:31:43.838Z,25.34
2023-08-24T14:34:10.450Z,25.34
2023-08-24T14:36:37.219Z,25.34
2023-08-24T14:39:06.313Z,25.25
2023-08-24T14:41:33.578Z,25.23
2023-08-24T14:44:00.267Z,25.17
2023-08-24T14:46:29.630Z,25.10
2023-08-24T14:48:56.294Z,25.12
2023-08-24T14:51:22.851Z,25.05
2023-08-24T14:53:52.846Z,25.12
2023-08-24T14:56:19.429Z,25.11
2023-08-24T14:58:46.152Z,25.10
2023-08-24T15:01:12.692Z,25.12
2023-08-24T15:03:39.182Z,25.04
2023-08-24T15:06:07.199Z,24.99
2023-08-24T15:08:34.425Z,24.98
2023-08-24T15:11:02.512Z,24.91
2023-08-24T15:13:30.724Z,24.92
2023-08-24T15:15:58.653Z,24.94
2023-08-24T15:18:27.122Z,24.94
2023-08-24T15:20:53.755Z,24.88
2023-08-24T15:23:28.658Z,24.89
2023-08-24T15:25:56.697Z,24.88
2023-08-24T15:28:24.214Z,24.90
2023-08-24T15:30:54.527Z,24.95
2023-08-24T15:33:21.505Z,24.91
2023-08-24T15:35:51.972Z,24.91
2023-08-24T15:38:18.526Z,24.96
2023-08-24T15:40:53.435Z,24.95
2023-08-24T15:43:20.007Z,24.96
2023-08-24T15:45:46.620Z,24.93
2023-08-24T15:48:13.154Z,24.83
2023-08-24T15:50:39.703Z,24.77
2023-08-24T15:53:18.075Z,24.76
2023-08-24T15:55:44.649Z,24.74
2023-08-24T15:58:14.793Z,24.63
2023-08-24T16:00:41.640Z,24.61
2023-08-24T16:03:10.422Z,24.67
2023-08-24T16:05:37.015Z,24.75
2023-08-24T16:08:04.937Z,24.76
2023-08-24T16:10:33.322Z,24.74
2023-08-24T16:13:01.607Z,24.70
2023-08-24T16:15:31.804Z,24.72
2023-08-24T16:17:58.552Z,24.67
2023-08-24T16:20:25.072Z,24.60
2023-08-24T16:22:51.721Z,24.54
2023-08-24T16:25:18.229Z,24.41
2023-08-24T16:27:47.876Z,24.32
2023-08-24T16:30:14.446Z,24.30
2023-08-24T16:32:41.124Z,24.23
2023-08-24T16:35:09.776Z,24.12
2023-08-24T16:37:36.346Z,24.09
2023-08-24T16:40:05.950Z,24.05
2023-08-24T16:42:35.729Z,24.00
2023-08-24T16:45:02.233Z,24.01
2023-08-24T16:47:30.202Z,23.99
2023-08-24T16:49:56.761Z,23.96
2023-08-24T16:52:23.524Z,23.98
2023-08-24T16:54:51.154Z,23.96
2023-08-24T16:57:17.770Z,23.85
2023-08-24T16:59:44.319Z,23.75
2023-08-24T17:02:14.506Z,23.71
2023-08-24T17:04:41.150Z,23.75
2023-08-24T17:07:07.758Z,23.80
2023-08-24T17:09:37.890Z,23.76
2023-08-24T17:12:07.463Z,23.68
2023-08-24T17:14:33.955Z,23.71
2023-08-24T17:17:03.629Z,23.63
2023-08-24T17:19:30.390Z,23.49
2023-08-24T17:22:00.323Z,23.45
2023-08-24T17:24:27.009Z,23.47
2023-08-24T17:26:54.490Z,23.45
2023-08-24T17:29:21.024Z,23.45
2023-08-24T17:31:48.334Z,23.43
2023-08-24T17:34:14.975Z,23.45
2023-08-24T17:36:41.488Z,23.47
2023-08-24T17:39:08.943Z,23.48
2023-08-24T17:41:39.450Z,23.43
2023-08-24T17:44:05.967Z,23.39
2023-08-24T17:46:36.150Z,23.35
2023-08-24T17:49:11.692Z,23.27
2023-08-24T17:51:38.520Z,23.15
2023-08-24T17:54:05.117Z,23.16
2023-08-24T17:56:34.344Z,23.21
2023-08-24T17:59:00.951Z,23.27
2023-08-24T18:01:30.380Z,23.24
2023-08-24T18:03:57.087Z,23.10
2023-08-24T18:06:23.687Z,23.10
2023-08-24T18:08:52.371Z,23.10
2023-08-24T18:11:19.630Z,23.00
2023-08-24T18:13:48.423Z,22.86
2023-08-24T18:16:15.567Z,22.80
2023-08-24T18:18:42.318Z,22.76
2023-08-24T18:21:11.517Z,22.75
2023-08-24T18:23:38.068Z,22.68
2023-08-24T18:26:05.499Z,22.68
2023-08-24T18:28:32.076Z,22.69
2023-08-24T18:30:59.625Z,22.71
2023-08-24T18:33:26.841Z,22.75
2023-08-24T18:35:56.436Z,22.72
2023-08-24T18:38:24.049Z,22.77
2023-08-24T18:40:55.071Z,22.83
2023-08-24T18:43:22.099Z,22.89
2023-08-24T18:45:58.667Z,22.88
2023-08-24T18:48:26.152Z,22.89
2023-08-24T18:50:53.097Z,22.92
2023-08-24T18:53:19.716Z,23.02
2023-08-24T18:55:46.474Z,23.01
2023-08-24T18:58:13.077Z,23.09
2023-08-24T19:00:39.687Z,23.12
2023-08-24T19:03:06.264Z,23.12
2023-08-24T19:05:33.641Z,23.02
2023-08-24T19:08:00.533Z,22.90
2023-08-24T19:10:30.063Z,22.81
2023-08-24T19:12:56.586Z,22.74
2023-08-24T19:15:23.239Z,22.72
2023-08-24T19:17:49.753Z,22.71
2023-08-24T19:20:19.340Z,22.63
2023-08-24T19:22:46.105Z,22.54
2023-08-24T19:25:13.307Z,22.42
2023-08-24T19:27:40.071Z,22.44
2023-08-24T19:30:07.227Z,22.36
2023-08-24T19:32:34.021Z,22.29
2023-08-24T19:35:00.579Z,22.33
2023-08-24T19:37:27.095Z,22.35
2023-08-24T19:39:53.724Z,22.32
2023-08-24T19:42:26.035Z,22.27
2023-08-24T19:44:53.010Z,22.29
2023-08-24T19:47:19.555Z,22.23
2023-08-24T19:49:47.565Z,22.26
2023-08-24T19:52:16.922Z,22.30
2023-08-24T19:54:43.492Z,22.31
2023-08-24T19:57:14.924Z,22.35
2023-08-24T19:59:41.527Z,22.45
2023-08-24T20:02:08.163Z,22.45
2023-08-24T20:04:35.166Z,22.51
2023-08-24T20:07:06.826Z,22.41
2023-08-24T20:09:33.429Z,22.34
2023-08-24T20:12:00.077Z,22.30
2023-08-24T20:14:26.585Z,22.25
2023-08-24T20:16:53.181Z,22.05
2023-08-24T20:19:22.992Z,22.03
2023-08-24T20:21:53.179Z,22.09
2023-08-24T20:24:24.758Z,22.14
2023-08-24T20:26:52.264Z,22.05
2023-08-24T20:29:18.786Z,21.95
2023-08-24T20:31:45.302Z,21.95
2023-08-24T20:34:11.875Z,22.05
2023-08-24T20:36:39.382Z,22.15
2023-08-24T20:39:12.397Z,22.17
2023-08-24T20:41:39.136Z,22.24
2023-08-24T20:44:05.750Z,22.29
2023-08-24T20:46:34.079Z,22.31
2023-08-24T20:49:00.652Z,22.29
2023-08-24T20:51:27.205Z,22.29
2023-08-24T20:53:53.711Z,22.34
2023-08-24T20:56:22.859Z,22.35
2023-08-24T20:58:51.587Z,22.33
2023-08-24T21:01:18.153Z,22.27
2023-08-24T21:03:45.203Z,22.21
2023-08-24T21:06:11.926Z,22.19
2023-08-24T21:08:41.362Z,22.08
2023-08-24T21:11:08.905Z,21.92
2023-08-24T21:13:35.526Z,21.83
2023-08-24T21:16:02.052Z,21.81
2023-08-24T21:18:28.656Z,21.77
2023-08-24T21:20:59.386Z,21.74
2023-08-24T21:23:26.215Z,21.73
2023-08-24T21:25:52.700Z,21.70
2023-08-24T21:28:19.253Z,21.81
2023-08-24T21:30:45.778Z,21.95
2023-08-24T21:33:12.774Z,22.00
2023-08-24T21:35:39.505Z,22.05
2023-08-24T21:38:06.946Z,22.06
2023-08-24T21:40:33.523Z,22.11
2023-08-24T21:43:00.827Z,22.15
2023-08-24T21:45:27.315Z,22.13
2023-08-24T21:47:54.199Z,22.13
2023-08-24T21:50:20.853Z,22.10
2023-08-24T21:52:47.381Z,22.13
2023-08-24T21:55:13.975Z,22.10
2023-08-24T21:57:40.588Z,22.11
2023-08-24T22:00:13.052Z,22.12
2023-08-24T22:02:42.718Z,22.17
2023-08-24T22:05:09.696Z,22.16
2023-08-24T22:07:39.952Z,22.15
2023-08-24T22:10:10.803Z,22.15
2023-08-24T22:12:37.342Z,22.17
2023-08-24T22:15:05.012Z,22.10
2023-08-24T22:17:31.634Z,21.97
2023-08-24T22:19:58.127Z,21.91
2023-08-24T22:22:24.775Z,21.85
2023-08-24T22:24:51.458Z,21.87
2023-08-24T22:27:18.877Z,21.76
2023-08-24T22:29:45.417Z,21.63
2023-08-24T22:32:11.963Z,21.68
2023-08-24T22:34:39.378Z,21.76
2023-08-24T22:37:08.767Z,21.82
2023-08-24T22:39:35.583Z,21.73
2023-08-24T22:42:04.568Z,21.75
2023-08-24T22:44:31.121Z,21.65
2023-08-24T22:46:57.638Z,21.63
2023-08-24T22:49:24.158Z,21.63
2023-08-24T22:51:50.699Z,21.54
2023-08-24T22:54:20.588Z,21.58
2023-08-24T22:56:50.314Z,21.49
2023-08-24T22:59:16.950Z,21.38
2023-08-24T23:01:44.006Z,21.30
2023-08-24T23:04:13.403Z,21.29
2023-08-24T23:07:08.012Z,21.32
2023-08-24T23:09:39.898Z,21.31
2023-08-24T23:12:06.666Z,21.32
2023-08-24T23:14:35.198Z,21.38
2023-08-24T23:17:07.467Z,21.38
2023-08-24T23:19:37.132Z,21.23
2023-08-24T23:22:04.159Z,21.24
2023-08-24T23:27:03.184Z,21.22
2023-08-24T23:29:29.983Z,21.18
2023-08-24T23:31:56.465Z,21.21
2023-08-24T23:34:24.751Z,21.22
2023-08-24T23:36:51.429Z,21.25
2023-08-24T23:39:18.350Z,21.26
2023-08-24T23:41:49.744Z,21.25
2023-08-24T23:44:16.810Z,21.18
2023-08-24T23:46:43.346Z,21.10
2023-08-24T23:49:09.882Z,21.14
2023-08-24T23:51:36.672Z,21.08
2023-08-24T23:54:09.018Z,21.03
2023-08-24T23:56:35.607Z,20.82
2023-08-24T23:59:07.913Z,20.79
